Etusivu
METAR-TAF:

METAR-TAF

Lentoasemat :

Gran Canaria, Espanja

Gran Canarian lentoasema

Leveyspiiri: 27-56N, Pituuspiiri: 015-23W, korkeus merenpinnasta: 23 m

Tämänhetkinen sää

Tämä raportti tehtiin 18 tuntia ja 1 minuuttia sitten, kello 15.00 UTC
Tuuli 18 kn koillisesta
Lämpötila 19°C
Kosteus 60%
Ilmanpaine 1016 hPa
Näkyvyys 10 km tai enemmän
Muutamia pilviä 3500 ft:n korkeudessa
Hajanaisia pilviä 5000 ft:n korkeudessa

METAR: GCLP 201500Z 04018KT 9999 FEW035 SCT050 19/11 Q1016 NOSIG

Aika: 09:01 (09:01 UTC)

Sääennuste

Tämä raportti tehtiin 19 tuntia ja 1 minuuttia sitten, kello 14.00 UTC
Ennuste voimassa 20. päivästä klo 15 UTC - 21. päivään klo 15 UTC
Tuuli 16 kn pohjoisesta
Näkyvyys 10 km tai enemmän
Hajanaisia pilviä 3500 ft:n korkeudessa
Todennäköisyys 40% :
Ajoittain
21. päivästä klo 03 UTC - 21. päivään klo 08 UTC
Tuuli 6 kn pohjoisen/luoteesta

TAF: GCLP 201400Z 2015/2115 01016KT 9999 SCT035 TX21/2114Z TN14/2106Z PROB40 TEMPO 2103/2108 33006KT

Säähavainnot ja -ennusteet yli 4000 lentoasemalta (METAR- ja TAF-raportit).

Käytössä olevat sääasemat on merkitty karttaan keltaisilla ja punaisilla pisteillä.

Aseta hiiri pisteen päälle nähdäksesi sääaseman nimen.

Klikkaa sitten nähdäksesi säähavainnot ja -ennusteet.

Kartan vaihtaminen: klikkaa mustalla rastilla varustettuja vihreitä pisteitä, niin voit zoomata sisään; viivalla varustettua vihreää pistettä, niin voit zoomata ulos tai vihreitä nuolia, niin pääset viereisille kartoille.


METAR-TAF: